BWA711 TLPC-TBPB
Flight info
| Callsign | BWA711 |
|---|---|
| Flight time | 0h 31m |
| Altitude | 11000 |
| Route | TEDDY DCT |
| Aircraft | AT76/M-SDFGHIRWY/LB1 |
Departure
| Time | 2026-04-21 19:11 |
|---|---|
| Airport | George F. L. Charles Airport (TLPC) |
Arrival
| Time | 2026-04-21 19:42 |
|---|---|
| Airport | Grantley Adams International Airport (TBPB) |
| Time | Latitude | Longitude | Altitude | Speed | Heading |
|---|---|---|---|---|---|
| 2026-04-21 19:02 | 14.02024 | -60.99558 | 24 ft | 0 kts | 148° |
| 2026-04-21 19:06 | 14.02022 | -60.99558 | 24 ft | 1 kts | 148° |
| 2026-04-21 19:06 | 14.02006 | -60.99542 | 25 ft | 5 kts | 121° |
| 2026-04-21 19:07 | 14.01993 | -60.99507 | 25 ft | 6 kts | 107° |
| 2026-04-21 19:07 | 14.01980 | -60.99468 | 25 ft | 6 kts | 129° |
| 2026-04-21 19:07 | 14.01948 | -60.99498 | 23 ft | 12 kts | 257° |
| 2026-04-21 19:07 | 14.01924 | -60.99597 | 23 ft | 16 kts | 255° |
| 2026-04-21 19:08 | 14.01892 | -60.99719 | 26 ft | 19 kts | 255° |
| 2026-04-21 19:08 | 14.01856 | -60.99857 | 28 ft | 21 kts | 255° |
| 2026-04-21 19:08 | 14.01825 | -60.99979 | 28 ft | 18 kts | 255° |
| 2026-04-21 19:08 | 14.01804 | -61.00099 | 28 ft | 12 kts | 265° |
| 2026-04-21 19:09 | 14.01794 | -61.00129 | 29 ft | 1 kts | 155° |
| 2026-04-21 19:09 | 14.01792 | -61.00097 | 28 ft | 5 kts | 77° |
| 2026-04-21 19:09 | 14.01794 | -61.00093 | 28 ft | 0 kts | 76° |
| 2026-04-21 19:10 | 14.01822 | -60.99984 | 28 ft | 48 kts | 75° |
| 2026-04-21 19:10 | 14.01967 | -60.99428 | 35 ft | 110 kts | 74° |
| 2026-04-21 19:11 | 14.02325 | -60.98765 | 644 ft | 113 kts | 31° |
| 2026-04-21 19:11 | 14.03202 | -60.98777 | 1190 ft | 139 kts | 349° |
| 2026-04-21 19:11 | 14.04105 | -60.99089 | 2033 ft | 139 kts | 340° |
| 2026-04-21 19:11 | 14.05081 | -60.99302 | 2512 ft | 150 kts | 13° |
| 2026-04-21 19:12 | 14.05686 | -60.99003 | 2942 ft | 145 kts | 45° |
| 2026-04-21 19:12 | 14.05857 | -60.97592 | 3434 ft | 176 kts | 111° |
| 2026-04-21 19:12 | 14.05115 | -60.96540 | 3784 ft | 189 kts | 140° |
| 2026-04-21 19:12 | 14.04115 | -60.95712 | 4569 ft | 185 kts | 140° |
| 2026-04-21 19:13 | 14.03085 | -60.94829 | 5022 ft | 199 kts | 136° |
| 2026-04-21 19:13 | 14.02161 | -60.93801 | 5831 ft | 192 kts | 129° |
| 2026-04-21 19:13 | 14.01300 | -60.92706 | 6325 ft | 209 kts | 129° |
| 2026-04-21 19:13 | 14.00310 | -60.91530 | 6703 ft | 214 kts | 137° |
| 2026-04-21 19:14 | 13.99151 | -60.90561 | 7110 ft | 214 kts | 142° |
| 2026-04-21 19:14 | 13.97973 | -60.89611 | 7421 ft | 217 kts | 142° |
| 2026-04-21 19:14 | 13.96842 | -60.88583 | 7713 ft | 217 kts | 137° |
| 2026-04-21 19:14 | 13.95799 | -60.87448 | 7974 ft | 219 kts | 132° |
| 2026-04-21 19:15 | 13.94861 | -60.86220 | 8230 ft | 221 kts | 128° |
| 2026-04-21 19:15 | 13.93971 | -60.84910 | 8441 ft | 224 kts | 125° |
| 2026-04-21 19:15 | 13.93083 | -60.83601 | 8727 ft | 223 kts | 127° |
| 2026-04-21 19:15 | 13.92191 | -60.82264 | 8935 ft | 226 kts | 127° |
| 2026-04-21 19:16 | 13.91301 | -60.80931 | 9253 ft | 222 kts | 127° |
| 2026-04-21 19:16 | 13.90449 | -60.79649 | 9758 ft | 212 kts | 127° |
| 2026-04-21 19:16 | 13.89603 | -60.78410 | 10082 ft | 212 kts | 128° |
| 2026-04-21 19:16 | 13.88748 | -60.77166 | 10358 ft | 212 kts | 128° |
| 2026-04-21 19:17 | 13.87032 | -60.74672 | 10839 ft | 217 kts | 127° |
| 2026-04-21 19:17 | 13.86141 | -60.73377 | 10913 ft | 226 kts | 127° |
| 2026-04-21 19:17 | 13.85528 | -60.72488 | 10941 ft | 232 kts | 127° |
| 2026-04-21 19:18 | 13.84578 | -60.71112 | 10964 ft | 239 kts | 127° |
| 2026-04-21 19:18 | 13.83610 | -60.69700 | 10976 ft | 244 kts | 127° |
| 2026-04-21 19:18 | 13.82294 | -60.67780 | 10981 ft | 250 kts | 127° |
| 2026-04-21 19:18 | 13.81611 | -60.66788 | 10985 ft | 252 kts | 127° |
| 2026-04-21 19:19 | 13.80595 | -60.65311 | 10986 ft | 254 kts | 127° |
| 2026-04-21 19:19 | 13.79584 | -60.63839 | 10985 ft | 256 kts | 127° |
| 2026-04-21 19:19 | 13.78550 | -60.62340 | 10979 ft | 257 kts | 127° |
| 2026-04-21 19:19 | 13.77515 | -60.60835 | 10979 ft | 258 kts | 127° |
| 2026-04-21 19:20 | 13.76474 | -60.59326 | 10979 ft | 258 kts | 127° |
| 2026-04-21 19:20 | 13.75435 | -60.57816 | 10979 ft | 259 kts | 127° |
| 2026-04-21 19:20 | 13.74395 | -60.56302 | 10979 ft | 259 kts | 127° |
| 2026-04-21 19:20 | 13.73376 | -60.54793 | 10979 ft | 260 kts | 126° |
| 2026-04-21 19:21 | 13.72367 | -60.53248 | 10980 ft | 260 kts | 125° |
| 2026-04-21 19:21 | 13.71380 | -60.51690 | 10974 ft | 260 kts | 124° |
| 2026-04-21 19:21 | 13.70402 | -60.50124 | 10974 ft | 261 kts | 124° |
| 2026-04-21 19:21 | 13.69426 | -60.48550 | 10974 ft | 261 kts | 124° |
| 2026-04-21 19:22 | 13.68455 | -60.46977 | 10975 ft | 261 kts | 124° |
| 2026-04-21 19:22 | 13.67481 | -60.45400 | 10976 ft | 261 kts | 124° |
| 2026-04-21 19:22 | 13.66507 | -60.43819 | 10977 ft | 262 kts | 124° |
| 2026-04-21 19:22 | 13.65530 | -60.42237 | 10977 ft | 262 kts | 124° |
| 2026-04-21 19:23 | 13.64553 | -60.40649 | 10974 ft | 262 kts | 124° |
| 2026-04-21 19:23 | 13.63576 | -60.39063 | 10970 ft | 262 kts | 124° |
| 2026-04-21 19:23 | 13.62599 | -60.37481 | 10970 ft | 262 kts | 124° |
| 2026-04-21 19:23 | 13.61622 | -60.35895 | 10970 ft | 262 kts | 124° |
| 2026-04-21 19:24 | 13.60659 | -60.34332 | 10972 ft | 262 kts | 124° |
| 2026-04-21 19:24 | 13.59684 | -60.32747 | 10972 ft | 262 kts | 124° |
| 2026-04-21 19:24 | 13.58707 | -60.31162 | 10971 ft | 262 kts | 124° |
| 2026-04-21 19:24 | 13.57729 | -60.29578 | 10972 ft | 262 kts | 124° |
| 2026-04-21 19:25 | 13.56750 | -60.27995 | 10960 ft | 262 kts | 124° |
| 2026-04-21 19:25 | 13.55775 | -60.26410 | 10960 ft | 262 kts | 124° |
| 2026-04-21 19:25 | 13.54796 | -60.24821 | 10960 ft | 262 kts | 124° |
| 2026-04-21 19:25 | 13.53817 | -60.23237 | 10960 ft | 262 kts | 124° |
| 2026-04-21 19:26 | 13.52840 | -60.21653 | 10962 ft | 262 kts | 124° |
| 2026-04-21 19:26 | 13.51873 | -60.20089 | 10963 ft | 262 kts | 124° |
| 2026-04-21 19:26 | 13.50895 | -60.18506 | 10963 ft | 262 kts | 124° |
| 2026-04-21 19:26 | 13.49916 | -60.16919 | 10962 ft | 262 kts | 124° |
| 2026-04-21 19:27 | 13.48935 | -60.15332 | 10958 ft | 263 kts | 124° |
| 2026-04-21 19:27 | 13.47954 | -60.13743 | 10958 ft | 263 kts | 124° |
| 2026-04-21 19:27 | 13.46966 | -60.12160 | 10958 ft | 263 kts | 124° |
| 2026-04-21 19:27 | 13.45989 | -60.10571 | 10958 ft | 263 kts | 124° |
| 2026-04-21 19:28 | 13.45023 | -60.09007 | 10958 ft | 263 kts | 124° |
| 2026-04-21 19:28 | 13.44034 | -60.07420 | 10958 ft | 263 kts | 125° |
| 2026-04-21 19:28 | 13.43023 | -60.05854 | 10958 ft | 263 kts | 126° |
| 2026-04-21 19:28 | 13.42015 | -60.04281 | 10952 ft | 263 kts | 124° |
| 2026-04-21 19:29 | 13.41060 | -60.02679 | 10955 ft | 263 kts | 123° |
| 2026-04-21 19:29 | 13.40101 | -60.01073 | 10955 ft | 263 kts | 123° |
| 2026-04-21 19:29 | 13.39132 | -59.99477 | 10955 ft | 263 kts | 124° |
| 2026-04-21 19:29 | 13.38154 | -59.97887 | 10956 ft | 263 kts | 124° |
| 2026-04-21 19:30 | 13.37172 | -59.96300 | 10953 ft | 263 kts | 124° |
| 2026-04-21 19:30 | 13.36188 | -59.94713 | 10956 ft | 263 kts | 124° |
| 2026-04-21 19:30 | 13.35218 | -59.93148 | 10956 ft | 264 kts | 124° |
| 2026-04-21 19:30 | 13.34236 | -59.91560 | 10955 ft | 264 kts | 124° |
| 2026-04-21 19:31 | 13.33250 | -59.89970 | 10954 ft | 261 kts | 124° |
| 2026-04-21 19:31 | 13.32311 | -59.88456 | 10948 ft | 241 kts | 124° |
| 2026-04-21 19:31 | 13.31434 | -59.87043 | 10862 ft | 230 kts | 125° |
| 2026-04-21 19:31 | 13.30577 | -59.85663 | 10628 ft | 228 kts | 124° |
| 2026-04-21 19:32 | 13.29722 | -59.84282 | 10344 ft | 229 kts | 124° |
| 2026-04-21 19:32 | 13.28867 | -59.82897 | 10076 ft | 230 kts | 125° |
| 2026-04-21 19:32 | 13.28007 | -59.81512 | 9793 ft | 230 kts | 125° |
| 2026-04-21 19:32 | 13.27149 | -59.80128 | 9484 ft | 229 kts | 124° |
| 2026-04-21 19:33 | 13.26580 | -59.79213 | 9284 ft | 229 kts | 124° |
| 2026-04-21 19:33 | 13.25444 | -59.77379 | 8862 ft | 230 kts | 124° |
| 2026-04-21 19:33 | 13.24604 | -59.76020 | 8487 ft | 220 kts | 124° |
| 2026-04-21 19:33 | 13.23800 | -59.74722 | 8114 ft | 211 kts | 124° |
| 2026-04-21 19:34 | 13.22963 | -59.73546 | 7742 ft | 198 kts | 140° |
| 2026-04-21 19:34 | 13.21945 | -59.72650 | 7382 ft | 191 kts | 137° |
| 2026-04-21 19:34 | 13.21020 | -59.71669 | 7001 ft | 192 kts | 134° |
| 2026-04-21 19:34 | 13.20089 | -59.70679 | 6577 ft | 192 kts | 137° |
| 2026-04-21 19:35 | 13.19058 | -59.69800 | 6152 ft | 193 kts | 142° |
| 2026-04-21 19:35 | 13.16896 | -59.68150 | 5198 ft | 196 kts | 143° |
| 2026-04-21 19:35 | 13.15780 | -59.67333 | 4717 ft | 197 kts | 144° |
| 2026-04-21 19:36 | 13.14662 | -59.66534 | 4221 ft | 194 kts | 146° |
| 2026-04-21 19:36 | 13.13527 | -59.65829 | 3731 ft | 188 kts | 148° |
| 2026-04-21 19:36 | 13.12399 | -59.65166 | 3267 ft | 185 kts | 148° |
| 2026-04-21 19:36 | 13.11280 | -59.64528 | 2756 ft | 183 kts | 149° |
| 2026-04-21 19:37 | 13.10191 | -59.63912 | 2342 ft | 178 kts | 149° |
| 2026-04-21 19:37 | 13.09153 | -59.63325 | 2117 ft | 164 kts | 149° |
| 2026-04-21 19:37 | 13.08181 | -59.62797 | 2035 ft | 151 kts | 159° |
| 2026-04-21 19:37 | 13.07186 | -59.62795 | 1980 ft | 138 kts | 186° |
| 2026-04-21 19:38 | 13.06146 | -59.62884 | 1988 ft | 166 kts | 181° |
| 2026-04-21 19:38 | 13.04964 | -59.62952 | 1992 ft | 166 kts | 177° |
| 2026-04-21 19:38 | 13.04255 | -59.62786 | 1948 ft | 157 kts | 136° |
| 2026-04-21 19:38 | 13.04215 | -59.61551 | 2025 ft | 135 kts | 65° |
| 2026-04-21 19:39 | 13.04589 | -59.60606 | 2042 ft | 151 kts | 72° |
| 2026-04-21 19:39 | 13.04857 | -59.59523 | 2093 ft | 160 kts | 78° |
| 2026-04-21 19:39 | 13.05115 | -59.58378 | 2009 ft | 170 kts | 73° |
| 2026-04-21 19:39 | 13.05421 | -59.57284 | 1770 ft | 154 kts | 71° |
| 2026-04-21 19:40 | 13.05726 | -59.56261 | 1422 ft | 148 kts | 72° |
| 2026-04-21 19:40 | 13.05976 | -59.55275 | 1089 ft | 137 kts | 76° |
| 2026-04-21 19:40 | 13.06162 | -59.54437 | 977 ft | 107 kts | 75° |
| 2026-04-21 19:40 | 13.06351 | -59.53707 | 774 ft | 113 kts | 74° |
| 2026-04-21 19:41 | 13.06548 | -59.52940 | 655 ft | 108 kts | 78° |
| 2026-04-21 19:41 | 13.06736 | -59.52209 | 530 ft | 103 kts | 77° |
| 2026-04-21 19:41 | 13.06898 | -59.51519 | 332 ft | 100 kts | 79° |
| 2026-04-21 19:41 | 13.07070 | -59.50813 | 244 ft | 102 kts | 76° |
| 2026-04-21 19:42 | 13.07235 | -59.50138 | 177 ft | 89 kts | 78° |
| 2026-04-21 19:42 | 13.07333 | -59.49733 | 173 ft | 41 kts | 76° |
| 2026-04-21 19:42 | 13.07411 | -59.49420 | 172 ft | 51 kts | 76° |
| 2026-04-21 19:42 | 13.07490 | -59.49095 | 172 ft | 42 kts | 76° |
| 2026-04-21 19:43 | 13.07564 | -59.48975 | 172 ft | 11 kts | 12° |
| 2026-04-21 19:43 | 13.07635 | -59.48998 | 174 ft | 11 kts | 340° |
| 2026-04-21 19:43 | 13.07686 | -59.48971 | 174 ft | 7 kts | 70° |
| 2026-04-21 19:43 | 13.07697 | -59.48930 | 174 ft | 5 kts | 75° |
| 2026-04-21 19:44 | 13.07706 | -59.48892 | 174 ft | 5 kts | 76° |
| 2026-04-21 19:44 | 13.07716 | -59.48853 | 174 ft | 6 kts | 72° |
| 2026-04-21 19:44 | 13.07756 | -59.48851 | 174 ft | 11 kts | 345° |
| 2026-04-21 19:44 | 13.07829 | -59.48871 | 174 ft | 9 kts | 346° |
| 2026-04-21 19:45 | 13.07834 | -59.48872 | 174 ft | 0 kts | 346° |